createdAt,value
2023-04-22T00:00:54.648Z,2.50
2023-04-22T00:03:22.945Z,2.50
2023-04-22T00:05:50.666Z,2.50
2023-04-22T00:08:18.145Z,2.43
2023-04-22T00:10:45.148Z,2.40
2023-04-22T00:13:12.651Z,2.40
2023-04-22T00:15:40.288Z,2.40
2023-04-22T00:18:13.525Z,2.60
2023-04-22T00:20:43.762Z,2.50
2023-04-22T00:23:13.060Z,2.47
2023-04-22T00:25:40.816Z,2.40
2023-04-22T00:28:08.128Z,2.50
2023-04-22T00:30:36.388Z,2.40
2023-04-22T00:33:04.939Z,2.60
2023-04-22T00:35:32.388Z,2.33
2023-04-22T00:37:59.468Z,2.50
2023-04-22T00:40:26.605Z,2.60
2023-04-22T00:42:54.696Z,2.40
2023-04-22T00:45:22.322Z,2.50
2023-04-22T00:47:49.787Z,2.50
2023-04-22T00:50:17.381Z,2.37
2023-04-22T00:52:44.608Z,2.47
2023-04-22T00:55:12.396Z,2.40
2023-04-22T00:57:40.612Z,2.53
2023-04-22T01:00:10.012Z,2.60
2023-04-22T01:02:38.791Z,2.40
2023-04-22T01:05:09.538Z,2.47
2023-04-22T01:07:37.555Z,2.40
2023-04-22T01:10:06.145Z,2.40
2023-04-22T01:12:33.871Z,2.50
2023-04-22T01:15:04.289Z,2.63
2023-04-22T01:17:33.612Z,2.40
2023-04-22T01:20:04.285Z,2.50
2023-04-22T01:22:40.270Z,2.40
2023-04-22T01:25:09.480Z,2.40
2023-04-22T01:27:37.292Z,2.50
2023-04-22T01:30:07.169Z,2.53
2023-04-22T01:32:34.928Z,2.57
2023-04-22T01:35:04.010Z,2.63
2023-04-22T01:37:31.438Z,2.50
2023-04-22T01:39:59.286Z,2.60
2023-04-22T01:42:27.992Z,2.57
2023-04-22T01:44:55.017Z,2.53
2023-04-22T01:47:22.333Z,2.50
2023-04-22T01:49:49.805Z,2.50
2023-04-22T01:52:17.304Z,2.60
2023-04-22T01:54:44.708Z,2.50
2023-04-22T01:57:16.452Z,2.60
2023-04-22T01:59:44.147Z,2.47
2023-04-22T02:02:11.629Z,2.53
2023-04-22T02:04:39.809Z,2.47
2023-04-22T02:07:07.328Z,2.47
2023-04-22T02:09:38.769Z,2.43
2023-04-22T02:12:06.371Z,2.50
2023-04-22T02:14:33.809Z,2.40
2023-04-22T02:17:04.647Z,2.50
2023-04-22T02:19:32.192Z,2.50
2023-04-22T02:21:59.916Z,2.57
2023-04-22T02:24:27.452Z,2.50
2023-04-22T02:26:54.410Z,2.53
2023-04-22T02:29:24.151Z,2.40
2023-04-22T02:31:51.281Z,2.40
2023-04-22T02:34:18.650Z,2.50
2023-04-22T02:36:46.135Z,2.50
2023-04-22T02:39:14.002Z,2.50
2023-04-22T02:41:41.779Z,2.47
2023-04-22T02:44:09.284Z,2.50
2023-04-22T02:46:37.543Z,2.47
2023-04-22T02:49:05.293Z,2.53
2023-04-22T02:51:33.429Z,2.50
2023-04-22T02:54:00.885Z,2.43
2023-04-22T02:56:28.293Z,2.60
2023-04-22T02:58:55.453Z,2.50
2023-04-22T03:01:22.620Z,2.50
2023-04-22T03:03:50.689Z,2.50
2023-04-22T03:06:22.977Z,2.37
2023-04-22T03:08:50.845Z,2.47
2023-04-22T03:11:17.853Z,2.47
2023-04-22T03:13:45.505Z,2.40
2023-04-22T03:16:13.435Z,2.60
2023-04-22T03:18:41.884Z,2.50
2023-04-22T03:21:11.480Z,2.60
2023-04-22T03:23:40.899Z,2.50
2023-04-22T03:26:08.313Z,2.60
2023-04-22T03:28:36.075Z,2.60
2023-04-22T03:31:04.118Z,2.63
2023-04-22T03:33:32.285Z,2.70
2023-04-22T03:36:06.548Z,2.67
2023-04-22T03:38:34.368Z,2.70
2023-04-22T03:41:01.938Z,2.70
2023-04-22T03:43:42.280Z,2.60
2023-04-22T03:46:10.714Z,2.70
2023-04-22T03:48:41.402Z,2.67
2023-04-22T03:51:14.606Z,2.83
2023-04-22T03:53:42.472Z,2.80
2023-04-22T03:56:13.067Z,2.70
2023-04-22T03:58:44.790Z,2.80
2023-04-22T04:01:12.280Z,2.60
2023-04-22T04:03:42.949Z,2.70
2023-04-22T04:06:12.500Z,2.60
2023-04-22T04:08:39.930Z,2.60
2023-04-22T04:11:10.857Z,2.60
2023-04-22T04:13:38.374Z,2.70
2023-04-22T04:16:16.851Z,2.70
2023-04-22T04:18:50.896Z,2.83
2023-04-22T04:21:18.592Z,2.60
2023-04-22T04:23:50.274Z,2.57
2023-04-22T04:26:20.351Z,2.60
2023-04-22T04:28:52.176Z,2.67
2023-04-22T04:31:20.029Z,2.70
2023-04-22T04:33:47.613Z,2.60
2023-04-22T04:36:15.330Z,2.70
2023-04-22T04:38:44.399Z,2.70
2023-04-22T04:41:11.967Z,2.70
2023-04-22T04:43:40.574Z,2.67
2023-04-22T04:46:29.529Z,2.77
2023-04-22T04:48:58.575Z,2.70
2023-04-22T04:51:28.332Z,2.63
2023-04-22T04:53:59.968Z,2.60
2023-04-22T04:56:32.527Z,2.67
2023-04-22T04:59:00.282Z,2.70
2023-04-22T05:01:29.108Z,2.60
2023-04-22T05:04:02.345Z,2.60
2023-04-22T05:06:30.034Z,2.60
2023-04-22T05:09:02.792Z,2.53
2023-04-22T05:11:30.639Z,2.80
2023-04-22T05:14:00.538Z,2.70
2023-04-22T05:16:33.438Z,2.67
2023-04-22T05:19:01.389Z,2.80
2023-04-22T05:21:28.409Z,2.60
2023-04-22T05:23:56.313Z,2.53
2023-04-22T05:26:24.319Z,2.57
2023-04-22T05:28:51.641Z,2.60
2023-04-22T05:31:20.086Z,2.50
2023-04-22T05:33:48.303Z,2.60
2023-04-22T05:36:16.053Z,2.60
2023-04-22T05:38:45.240Z,2.60
2023-04-22T05:41:13.775Z,2.73
2023-04-22T05:43:40.992Z,2.80
2023-04-22T05:46:14.665Z,2.70
2023-04-22T05:48:43.277Z,2.57
2023-04-22T05:51:23.788Z,2.70
2023-04-22T05:53:51.926Z,2.67
2023-04-22T05:56:20.916Z,2.50
2023-04-22T05:58:48.369Z,2.47
2023-04-22T06:01:20.740Z,2.50
2023-04-22T06:04:18.903Z,2.43
2023-04-22T06:06:47.640Z,2.50
2023-04-22T06:09:14.653Z,2.40
2023-04-22T06:11:42.987Z,2.37
2023-04-22T06:14:10.596Z,2.30
2023-04-22T06:16:39.751Z,2.30
2023-04-22T06:19:08.164Z,2.40
2023-04-22T06:21:38.575Z,2.30
2023-04-22T06:24:06.095Z,2.30
2023-04-22T06:26:33.653Z,2.37
2023-04-22T06:29:02.815Z,2.40
2023-04-22T06:31:29.845Z,2.30
2023-04-22T06:33:57.353Z,2.30
2023-04-22T06:36:27.362Z,2.30
2023-04-22T06:39:01.036Z,2.30
2023-04-22T06:41:53.047Z,2.30
2023-04-22T06:44:58.763Z,2.20
2023-04-22T06:47:37.703Z,2.20
2023-04-22T06:50:14.715Z,2.33
2023-04-22T06:52:53.126Z,2.40
2023-04-22T06:55:20.411Z,2.20
2023-04-22T06:57:48.360Z,2.20
2023-04-22T07:00:16.097Z,2.20
2023-04-22T07:02:43.821Z,2.20
2023-04-22T07:05:11.206Z,2.20
2023-04-22T07:07:38.630Z,2.10
2023-04-22T07:10:07.115Z,2.23
2023-04-22T07:12:44.710Z,2.10
2023-04-22T07:15:11.792Z,2.20
2023-04-22T07:17:39.115Z,2.20
2023-04-22T07:20:07.428Z,2.20
2023-04-22T07:22:35.021Z,2.33
2023-04-22T07:25:02.716Z,2.47
2023-04-22T07:27:29.955Z,2.50
2023-04-22T07:29:56.947Z,2.70
2023-04-22T07:32:24.004Z,2.70
2023-04-22T07:34:51.357Z,2.80
2023-04-22T07:37:18.334Z,2.47
2023-04-22T07:39:45.308Z,2.17
2023-04-22T07:42:12.751Z,2.13
2023-04-22T07:44:40.284Z,2.10
2023-04-22T07:47:08.459Z,1.90
2023-04-22T07:49:35.672Z,1.90
2023-04-22T07:52:02.706Z,1.90
2023-04-22T07:54:29.760Z,2.00
2023-04-22T07:56:58.187Z,1.90
2023-04-22T07:59:25.783Z,1.90
2023-04-22T08:03:57.279Z,1.87
2023-04-22T08:06:24.676Z,1.80
2023-04-22T08:08:52.103Z,1.77
2023-04-22T08:11:19.169Z,1.87
2023-04-22T08:13:46.373Z,1.83
2023-04-22T08:16:13.494Z,1.80
2023-04-22T08:18:40.595Z,1.73
2023-04-22T08:21:08.084Z,1.70
2023-04-22T08:23:35.566Z,1.80
2023-04-22T08:26:04.118Z,2.00
2023-04-22T08:28:31.531Z,1.80
2023-04-22T08:30:59.105Z,1.73
2023-04-22T08:33:27.405Z,1.77
2023-04-22T08:35:54.996Z,1.93
2023-04-22T08:38:22.454Z,1.93
2023-04-22T08:40:50.497Z,2.00
2023-04-22T08:43:18.222Z,2.17
2023-04-22T08:45:45.830Z,2.50
2023-04-22T08:48:13.852Z,2.00
2023-04-22T08:50:41.513Z,2.20
2023-04-22T08:53:08.763Z,1.93
2023-04-22T08:55:36.945Z,1.80
2023-04-22T08:58:05.934Z,1.80
2023-04-22T09:00:34.490Z,1.63
2023-04-22T09:03:03.532Z,1.60
2023-04-22T09:05:34.400Z,1.50
2023-04-22T09:08:03.303Z,1.40
2023-04-22T09:10:33.582Z,1.50
2023-04-22T09:13:05.491Z,1.80
2023-04-22T09:15:33.811Z,1.70
2023-04-22T09:18:04.371Z,2.10
2023-04-22T09:20:31.999Z,2.10
2023-04-22T09:23:05.055Z,1.70
2023-04-22T09:25:37.057Z,1.80
2023-04-22T09:28:04.781Z,1.50
2023-04-22T09:30:36.473Z,1.50
2023-04-22T09:33:07.396Z,1.40
2023-04-22T09:35:41.134Z,1.50
2023-04-22T09:38:11.847Z,1.60
2023-04-22T09:40:43.778Z,1.63
2023-04-22T09:43:12.007Z,1.80
2023-04-22T09:45:42.295Z,1.73
2023-04-22T09:48:10.775Z,1.60
2023-04-22T09:50:49.242Z,1.70
2023-04-22T09:53:21.831Z,1.80
2023-04-22T09:55:53.865Z,1.80
2023-04-22T09:58:23.777Z,2.00
2023-04-22T10:00:57.049Z,2.07
2023-04-22T10:03:24.960Z,2.10
2023-04-22T10:05:52.525Z,2.07
2023-04-22T10:08:19.608Z,2.07
2023-04-22T10:10:47.231Z,3.07
2023-04-22T10:13:14.686Z,3.20
2023-04-22T10:15:53.018Z,3.00
2023-04-22T10:18:27.439Z,2.90
2023-04-22T10:20:58.169Z,3.30
2023-04-22T10:23:26.017Z,2.50
2023-04-22T10:25:57.443Z,1.80
2023-04-22T10:28:30.004Z,1.90
2023-04-22T10:30:57.164Z,1.80
2023-04-22T10:33:24.157Z,1.70
2023-04-22T10:36:17.928Z,1.80
2023-04-22T10:39:05.070Z,1.80
2023-04-22T10:41:35.629Z,1.70
2023-04-22T10:44:07.989Z,1.47
2023-04-22T10:46:37.142Z,1.43
2023-04-22T10:49:13.731Z,1.40
2023-04-22T10:51:53.001Z,1.53
2023-04-22T10:54:28.668Z,1.40
2023-04-22T10:57:15.510Z,1.40
2023-04-22T10:59:50.008Z,1.40
2023-04-22T11:02:19.503Z,1.60
2023-04-22T11:04:47.616Z,1.50
2023-04-22T11:07:22.582Z,1.50
2023-04-22T11:10:09.557Z,1.50
2023-04-22T11:12:39.710Z,1.40
2023-04-22T11:15:08.833Z,1.50
2023-04-22T11:17:42.048Z,1.63
2023-04-22T11:20:10.891Z,1.60
2023-04-22T11:22:44.568Z,1.80
2023-04-22T11:25:12.559Z,1.87
2023-04-22T11:27:43.253Z,1.87
2023-04-22T11:30:18.124Z,1.63
2023-04-22T11:32:50.639Z,1.70
2023-04-22T11:35:28.854Z,1.80
2023-04-22T11:38:04.438Z,1.60
2023-04-22T11:40:46.209Z,1.40
2023-04-22T11:43:14.822Z,1.40
2023-04-22T11:45:42.448Z,1.30
2023-04-22T11:48:11.710Z,1.20
2023-04-22T11:50:44.240Z,1.20
2023-04-22T11:53:23.969Z,1.20
2023-04-22T11:55:52.735Z,1.40
2023-04-22T11:58:27.084Z,1.30
2023-04-22T12:00:58.630Z,1.30
2023-04-22T12:03:29.349Z,1.40
2023-04-22T12:06:04.085Z,1.30
2023-04-22T12:08:43.579Z,1.30
2023-04-22T12:11:12.731Z,1.30
2023-04-22T12:13:43.043Z,1.30
2023-04-22T12:16:17.650Z,1.30
2023-04-22T12:18:53.728Z,1.30
2023-04-22T12:21:28.142Z,1.40
2023-04-22T12:24:00.385Z,1.30
2023-04-22T12:26:28.160Z,1.40
2023-04-22T12:28:58.166Z,1.47
2023-04-22T12:31:27.314Z,1.30
2023-04-22T12:33:54.758Z,1.20
2023-04-22T12:36:24.194Z,1.10
2023-04-22T12:38:52.212Z,1.20
2023-04-22T12:41:19.742Z,1.33
2023-04-22T12:43:47.641Z,1.40
2023-04-22T12:46:14.964Z,1.70
2023-04-22T12:48:42.710Z,1.93
2023-04-22T12:51:10.227Z,1.90
2023-04-22T12:53:37.939Z,1.80
2023-04-22T12:56:05.611Z,1.80
2023-04-22T12:58:33.005Z,1.80
2023-04-22T13:01:00.386Z,1.80
2023-04-22T13:03:28.300Z,1.70
2023-04-22T13:05:55.466Z,1.70
2023-04-22T13:08:23.053Z,1.70
2023-04-22T13:10:50.305Z,1.60
2023-04-22T13:13:19.251Z,1.60
2023-04-22T13:15:53.334Z,1.30
2023-04-22T13:18:23.288Z,1.30
2023-04-22T13:20:51.490Z,1.40
2023-04-22T13:23:21.353Z,1.60
2023-04-22T13:25:48.661Z,1.60
2023-04-22T13:28:16.049Z,1.70
2023-04-22T13:30:43.014Z,1.70
2023-04-22T13:33:10.155Z,1.40
2023-04-22T13:35:37.895Z,1.40
2023-04-22T13:38:06.197Z,1.50
2023-04-22T13:40:33.685Z,1.60
2023-04-22T13:43:01.285Z,1.50
2023-04-22T13:45:28.508Z,1.40
2023-04-22T13:47:56.011Z,1.40
2023-04-22T13:50:24.026Z,1.40
2023-04-22T13:52:51.390Z,1.50
2023-04-22T13:55:18.977Z,1.50
2023-04-22T13:57:46.073Z,1.40
2023-04-22T14:00:13.912Z,1.30
2023-04-22T14:02:41.020Z,1.40
2023-04-22T14:05:10.481Z,1.30
2023-04-22T14:07:37.651Z,1.30
2023-04-22T14:10:08.290Z,1.30
2023-04-22T14:12:35.490Z,1.37
2023-04-22T14:15:02.526Z,1.50
2023-04-22T14:17:29.628Z,1.60
2023-04-22T14:19:56.730Z,1.50
2023-04-22T14:22:23.812Z,1.50
2023-04-22T14:24:51.205Z,1.50
2023-04-22T14:27:18.259Z,1.60
2023-04-22T14:29:46.041Z,1.40
2023-04-22T14:32:13.126Z,1.50
2023-04-22T14:34:40.145Z,1.50
2023-04-22T14:37:07.585Z,1.47
2023-04-22T14:39:34.582Z,1.50
2023-04-22T14:42:02.432Z,1.50
2023-04-22T14:44:32.680Z,1.63
2023-04-22T14:47:00.955Z,1.50
2023-04-22T14:49:31.412Z,1.57
2023-04-22T14:52:01.138Z,1.57
2023-04-22T14:54:28.540Z,1.40
2023-04-22T14:56:58.873Z,1.50
2023-04-22T14:59:27.195Z,1.60
2023-04-22T15:02:00.193Z,1.70
2023-04-22T15:04:28.326Z,1.60
2023-04-22T15:06:58.462Z,1.43
2023-04-22T15:09:29.425Z,1.40
2023-04-22T15:11:59.387Z,1.50
2023-04-22T15:14:26.515Z,1.40
2023-04-22T15:16:54.370Z,1.50
2023-04-22T15:19:25.835Z,2.37
2023-04-22T15:21:53.914Z,1.40
2023-04-22T15:24:24.582Z,1.50
2023-04-22T15:26:53.831Z,1.40
2023-04-22T15:29:25.075Z,2.53
2023-04-22T15:31:54.542Z,1.50
2023-04-22T15:34:22.019Z,1.40
2023-04-22T15:36:49.193Z,1.60
2023-04-22T15:39:22.384Z,1.60
2023-04-22T15:41:49.513Z,1.60
2023-04-22T15:44:19.792Z,1.50
2023-04-22T15:46:48.000Z,1.67
2023-04-22T15:49:15.506Z,1.67
2023-04-22T15:51:43.433Z,1.80
2023-04-22T15:54:10.471Z,1.73
2023-04-22T15:56:39.733Z,1.80
2023-04-22T15:59:07.710Z,1.80
2023-04-22T16:01:34.731Z,1.90
2023-04-22T16:04:02.345Z,1.80
2023-04-22T16:06:30.790Z,2.00
2023-04-22T16:09:00.122Z,1.80
2023-04-22T16:11:33.649Z,2.57
2023-04-22T16:14:01.837Z,1.90
2023-04-22T16:16:29.478Z,1.83
2023-04-22T16:18:56.540Z,2.00
2023-04-22T16:21:24.338Z,1.97
2023-04-22T16:23:51.815Z,2.00
2023-04-22T16:26:18.767Z,2.03
2023-04-22T16:28:47.786Z,2.10
2023-04-22T16:31:18.060Z,2.20
2023-04-22T16:33:46.137Z,2.30
2023-04-22T16:36:13.642Z,2.23
2023-04-22T16:38:40.725Z,2.50
2023-04-22T16:41:07.716Z,2.30
2023-04-22T16:43:34.794Z,2.20
2023-04-22T16:46:01.801Z,2.30
2023-04-22T16:48:29.250Z,2.00
2023-04-22T16:50:56.174Z,2.00
2023-04-22T16:53:23.248Z,1.83
2023-04-22T16:55:51.311Z,1.70
2023-04-22T16:58:18.328Z,1.77
2023-04-22T17:00:47.572Z,1.80
2023-04-22T17:03:16.041Z,1.80
2023-04-22T17:05:43.487Z,1.90
2023-04-22T17:08:10.456Z,1.80
2023-04-22T17:10:45.448Z,1.90
2023-04-22T17:13:16.778Z,1.73
2023-04-22T17:15:44.260Z,1.80
2023-04-22T17:18:11.852Z,1.80
2023-04-22T17:20:39.167Z,1.77
2023-04-22T17:23:06.132Z,1.90
2023-04-22T17:25:33.130Z,1.90
2023-04-22T17:28:01.049Z,1.90
2023-04-22T17:30:28.522Z,1.90
2023-04-22T17:32:55.917Z,1.90
2023-04-22T17:35:23.303Z,2.00
2023-04-22T17:37:50.712Z,2.00
2023-04-22T17:40:17.803Z,1.97
2023-04-22T17:42:46.516Z,2.10
2023-04-22T17:45:13.899Z,2.10
2023-04-22T17:47:41.120Z,2.10
2023-04-22T17:50:08.870Z,2.20
2023-04-22T17:52:36.479Z,2.07
2023-04-22T17:55:03.572Z,2.07
2023-04-22T17:57:31.126Z,2.10
2023-04-22T17:59:58.698Z,2.10
2023-04-22T18:02:25.960Z,2.00
2023-04-22T18:04:53.225Z,2.20
2023-04-22T18:07:20.303Z,2.10
2023-04-22T18:09:49.394Z,2.20
2023-04-22T18:12:16.849Z,2.10
2023-04-22T18:14:43.888Z,2.13
2023-04-22T18:17:12.496Z,2.17
2023-04-22T18:19:40.232Z,2.10
2023-04-22T18:22:07.862Z,2.00
2023-04-22T18:24:34.991Z,2.10
2023-04-22T18:27:02.681Z,2.00
2023-04-22T18:29:29.787Z,2.23
2023-04-22T18:31:57.554Z,2.10
2023-04-22T18:34:25.083Z,2.00
2023-04-22T18:36:52.579Z,2.27
2023-04-22T18:39:19.615Z,2.27
2023-04-22T18:41:46.600Z,2.50
2023-04-22T18:44:14.404Z,2.63
2023-04-22T18:46:41.661Z,2.40
2023-04-22T18:49:09.106Z,2.37
2023-04-22T18:51:37.902Z,2.43
2023-04-22T18:54:07.885Z,2.60
2023-04-22T18:56:35.020Z,2.70
2023-04-22T18:59:02.444Z,2.77
2023-04-22T19:01:29.582Z,2.67
2023-04-22T19:03:57.228Z,2.53
2023-04-22T19:06:24.748Z,2.73
2023-04-22T19:08:52.863Z,2.60
2023-04-22T19:11:20.494Z,2.67
2023-04-22T19:13:48.018Z,2.57
2023-04-22T19:16:15.632Z,2.37
2023-04-22T19:18:44.574Z,2.50
2023-04-22T19:21:11.648Z,2.47
2023-04-22T19:23:40.608Z,2.37
2023-04-22T19:26:11.353Z,2.37
2023-04-22T19:28:38.768Z,2.30
2023-04-22T19:31:07.237Z,2.40
2023-04-22T19:33:34.914Z,2.40
2023-04-22T19:36:02.339Z,2.40
2023-04-22T19:38:29.829Z,2.60
2023-04-22T19:40:57.887Z,2.50
2023-04-22T19:43:25.547Z,2.37
2023-04-22T19:45:56.153Z,2.47
2023-04-22T19:48:24.115Z,2.53
2023-04-22T19:50:51.295Z,2.60
2023-04-22T19:53:19.776Z,2.60
2023-04-22T19:55:47.409Z,2.60
2023-04-22T19:58:14.938Z,2.37
2023-04-22T20:00:42.774Z,2.40
2023-04-22T20:03:13.007Z,2.43
2023-04-22T20:05:41.012Z,2.43
2023-04-22T20:08:09.296Z,2.40
2023-04-22T20:10:37.975Z,2.60
2023-04-22T20:13:05.753Z,2.63
2023-04-22T20:15:33.219Z,2.60
2023-04-22T20:18:00.658Z,2.50
2023-04-22T20:20:28.785Z,2.50
2023-04-22T20:23:01.388Z,2.40
2023-04-22T20:25:30.778Z,2.40
2023-04-22T20:27:58.530Z,2.50
2023-04-22T20:30:26.766Z,2.37
2023-04-22T20:32:54.495Z,2.37
2023-04-22T20:35:22.365Z,2.40
2023-04-22T20:37:53.441Z,2.37
2023-04-22T20:40:23.301Z,2.40
2023-04-22T20:42:52.146Z,2.50
2023-04-22T20:45:20.224Z,2.40
2023-04-22T20:47:48.381Z,2.47
2023-04-22T20:50:16.049Z,2.40
2023-04-22T20:52:43.329Z,2.50
2023-04-22T20:55:10.972Z,2.60
2023-04-22T20:57:38.504Z,2.40
2023-04-22T21:00:07.308Z,2.40
2023-04-22T21:02:36.705Z,2.57
2023-04-22T21:05:05.241Z,2.30
2023-04-22T21:07:34.653Z,2.40
2023-04-22T21:10:02.037Z,2.37
2023-04-22T21:12:29.598Z,2.40
2023-04-22T21:14:57.460Z,2.37
2023-04-22T21:17:32.217Z,2.50
2023-04-22T21:20:04.101Z,2.40
2023-04-22T21:22:31.986Z,2.40
2023-04-22T21:25:00.192Z,2.50
2023-04-22T21:27:27.802Z,2.40
2023-04-22T21:29:55.501Z,2.50
2023-04-22T21:32:22.992Z,2.50
2023-04-22T21:34:50.054Z,2.40
2023-04-22T21:37:17.504Z,2.53
2023-04-22T21:39:44.918Z,2.47
2023-04-22T21:42:11.948Z,2.40
2023-04-22T21:44:39.465Z,2.50
2023-04-22T21:47:06.973Z,2.50
2023-04-22T21:49:34.484Z,2.40
2023-04-22T21:52:01.675Z,2.50
2023-04-22T21:54:28.753Z,2.40
2023-04-22T21:56:57.661Z,2.40
2023-04-22T21:59:24.762Z,2.43
2023-04-22T22:01:52.454Z,2.50
2023-04-22T22:04:20.012Z,2.47
2023-04-22T22:06:48.697Z,2.40
2023-04-22T22:09:16.134Z,2.37
2023-04-22T22:11:43.160Z,2.40
2023-04-22T22:14:10.589Z,2.40
2023-04-22T22:16:38.242Z,2.40
2023-04-22T22:19:06.343Z,2.40
2023-04-22T22:21:33.419Z,2.47
2023-04-22T22:24:00.895Z,2.50
2023-04-22T22:26:29.069Z,2.50
2023-04-22T22:28:56.530Z,2.40
2023-04-22T22:31:24.056Z,2.50
2023-04-22T22:33:51.082Z,2.43
2023-04-22T22:36:18.936Z,2.60
2023-04-22T22:38:46.633Z,2.50
2023-04-22T22:41:14.004Z,2.40
2023-04-22T22:43:41.532Z,2.53
2023-04-22T22:46:09.169Z,2.40
2023-04-22T22:48:36.995Z,2.40
2023-04-22T22:51:04.529Z,2.40
2023-04-22T22:53:34.131Z,2.40
2023-04-22T22:56:01.623Z,2.40
2023-04-22T22:58:29.487Z,2.40
2023-04-22T23:00:56.498Z,2.50
2023-04-22T23:03:24.081Z,2.40
2023-04-22T23:05:51.509Z,2.37
2023-04-22T23:08:19.069Z,2.40
2023-04-22T23:10:46.483Z,2.33
2023-04-22T23:13:13.956Z,2.47
2023-04-22T23:15:41.067Z,2.37
2023-04-22T23:18:09.268Z,2.33
2023-04-22T23:20:37.419Z,2.40
2023-04-22T23:23:05.658Z,2.30
2023-04-22T23:25:32.970Z,2.40
2023-04-22T23:28:01.471Z,2.33
2023-04-22T23:30:29.321Z,2.37
2023-04-22T23:33:02.456Z,2.33
2023-04-22T23:35:34.781Z,2.27
2023-04-22T23:38:04.285Z,2.30
2023-04-22T23:40:31.703Z,2.37
2023-04-22T23:42:59.692Z,2.40
2023-04-22T23:45:27.174Z,2.37
2023-04-22T23:47:54.254Z,2.43
2023-04-22T23:50:21.460Z,2.40
2023-04-22T23:52:48.911Z,2.47
2023-04-22T23:55:16.324Z,2.40
2023-04-22T23:57:43.714Z,2.40
